Beaumaiden — PHOU — position and weather

sailwx.info

Track history (hours):
 
Tides and Currents Weather Stations Pressure Air Temp Water Temp Dewpoint Dewpoint Depression Visibility Wind Speed Wind Dir Waves Ship Positions

Beaumaiden

Last reported at 2018-Jun-25 08:00 UTC. Time now 2018-Jun-25 08:19 UTC.
Position N 54°34' E 010°53'.

Length 88 m; draft 5.3 m.

Type: Cargo ship. MMSI: 244366000.

Date/timePositionNaut miles runAvg speedWind from/ knotsBaromVisibWave heightAir tempDewpointWater temp
2018-Jun-25 08:00N 54°34' E 010°53'611.1
2018-Jun-25 07:31N 54°34' E 010°43'510.1
2018-Jun-25 07:00N 54°34' E 010°35'5 9.9
2018-Jun-25 06:31N 54°31' E 010°27'5 9.9
2018-Jun-25 05:59N 54°29' E 010°19'5 9.2
2018-Jun-25 05:30N 54°26' E 010°14'23 6.1
2018-Jun-25 01:47N 54°17' E 009°38'2 8.0
2018-Jun-25 01:30N 54°14' E 009°37'3 6.5
2018-Jun-25 01:01N 54°12' E 009°33'8 5.8
2018-Jun-24 23:33N 54°08' E 009°20'1 8.6
2018-Jun-24 23:27N 54°08' E 009°20'4 8.4
2018-Jun-24 23:00N 54°04' E 009°19'4 8.6
2018-Jun-24 22:30N 53°60' E 009°17'4 7.3
2018-Jun-24 22:00N 53°57' E 009°14'0 0.0
2018-Jun-24 21:30N 53°57' E 009°14'0 0.0
2018-Jun-24 21:00N 53°57' E 009°14'1 2.2
2018-Jun-24 20:30N 53°56' E 009°12'3 6.2
2018-Jun-24 20:00N 53°54' E 009°09'0 0.0
2018-Jun-24 19:30N 53°54' E 009°09'1 2.5
2018-Jun-24 19:00N 53°53' E 009°07'4 8.0
2018-Jun-24 18:30N 53°51' E 009°01'510.6
2018-Jun-24 18:00N 53°50' E 008°52'5 9.4
2018-Jun-24 17:30N 53°52' E 008°44'5 9.7
2018-Jun-24 17:00N 53°56' E 008°40'100 9.1
2018-Jun-24 05:58N 53°39' E 005°53'510.0
2018-Jun-24 05:30N 53°37' E 005°46'510.2
2018-Jun-24 05:00N 53°35' E 005°37'510.4
2018-Jun-24 04:29N 53°34' E 005°29'510.4
2018-Jun-24 04:00N 53°32' E 005°21'510.5
2018-Jun-24 03:30N 53°30' E 005°13'510.5
2018-Jun-24 03:00N 53°29' E 005°04'510.6
2018-Jun-24 02:31N 53°26' E 004°56'510.6
2018-Jun-24 02:01N 53°24' E 004°48'510.1
2018-Jun-24 01:28N 53°21' E 004°41'2610.7
2018-Jun-23 23:05N 52°58' E 004°21'110.2
2018-Jun-23 22:57N 52°57' E 004°20'410.0
2018-Jun-23 22:30N 52°53' E 004°18'5 9.9
2018-Jun-23 22:00N 52°49' E 004°13'10 7.6
2018-Jun-23 20:42N 52°39' E 004°15'2 9.4
2018-Jun-23 20:29N 52°37' E 004°18'4 9.2
2018-Jun-23 20:00N 52°34' E 004°22'5 9.1
2018-Jun-23 19:31N 52°30' E 004°27'4 8.1
2018-Jun-23 19:00N 52°28' E 004°32'2 4.6
2018-Jun-23 18:30N 52°28' E 004°36'2 3.4
2018-Jun-23 18:00N 52°28' E 004°39'4 8.9
2018-Jun-23 17:31N 52°26' E 004°45'4 8.5
2018-Jun-23 17:01N 52°25' E 004°52'0 0.8
2018-Jun-23 16:29N 52°24' E 004°52'0 0.0
2018-Jun-23 15:59N 52°24' E 004°52'0 0.0
2018-Jun-23 15:29N 52°24' E 004°52'0 0.0
2018-Jun-23 14:59N 52°24' E 004°52'0 0.0
2018-Jun-23 14:29N 52°24' E 004°52'0 0.0
2018-Jun-23 13:59N 52°24' E 004°52'0 0.0
2018-Jun-23 13:26N 52°24' E 004°52'0 0.0
2018-Jun-23 12:56N 52°24' E 004°52'0 0.0
2018-Jun-23 12:26N 52°24' E 004°52'0 0.0
2018-Jun-23 11:59N 52°24' E 004°52'0 0.0
2018-Jun-23 11:29N 52°24' E 004°52'0 0.0
2018-Jun-23 10:56N 52°24' E 004°52'0 0.0
2018-Jun-23 10:29N 52°24' E 004°52'0 0.0
2018-Jun-23 09:59N 52°24' E 004°52'0 0.0
2018-Jun-23 09:29N 52°24' E 004°52'0 0.0
2018-Jun-23 08:59N 52°24' E 004°52'0 0.0
2018-Jun-23 08:29N 52°24' E 004°52'0 0.0
2018-Jun-23 07:59N 52°24' E 004°52'0 0.0
2018-Jun-23 07:29N 52°24' E 004°52'0 0.0
2018-Jun-23 06:56N 52°24' E 004°52'0 0.0
2018-Jun-23 06:29N 52°24' E 004°52'0 0.0
2018-Jun-23 05:59N 52°24' E 004°52'0 0.0
2018-Jun-23 05:29N 52°24' E 004°52'0 0.0
2018-Jun-23 04:59N 52°24' E 004°52'0 0.0
2018-Jun-23 04:29N 52°24' E 004°52'0 0.0
2018-Jun-23 03:59N 52°24' E 004°52'0 0.0
2018-Jun-23 03:29N 52°24' E 004°52'0 0.0
2018-Jun-23 02:59N 52°24' E 004°52'0 0.0
2018-Jun-23 02:29N 52°24' E 004°52'0 0.0
2018-Jun-23 01:59N 52°24' E 004°52'0 0.0
2018-Jun-23 01:29N 52°24' E 004°52'0 0.0
2018-Jun-23 00:59N 52°24' E 004°52'0 0.0
2018-Jun-23 00:29N 52°24' E 004°52'0 0.0
2018-Jun-22 23:59N 52°24' E 004°52'0 0.0
2018-Jun-22 23:29N 52°24' E 004°52'0 0.0
2018-Jun-22 22:59N 52°24' E 004°52'0 0.0
2018-Jun-22 22:29N 52°24' E 004°52'0 0.0
2018-Jun-22 21:59N 52°24' E 004°52'0 0.0
2018-Jun-22 21:29N 52°24' E 004°52'0 0.0
2018-Jun-22 20:59N 52°24' E 004°52'0 0.0
2018-Jun-22 20:29N 52°24' E 004°52'0 0.0
2018-Jun-22 19:59N 52°24' E 004°52'0 0.0
2018-Jun-22 19:29N 52°24' E 004°52'0 0.0
2018-Jun-22 18:59N 52°24' E 004°52'0 0.0
2018-Jun-22 18:29N 52°24' E 004°52'0 0.0
2018-Jun-22 17:59N 52°24' E 004°52'0 0.0
2018-Jun-22 17:29N 52°24' E 004°52'0 0.0
2018-Jun-22 16:56N 52°24' E 004°52'0 0.0
2018-Jun-22 16:29N 52°24' E 004°52'0 0.0
2018-Jun-22 15:59N 52°24' E 004°52'0 0.0
2018-Jun-22 15:26N 52°24' E 004°52'0 0.0
2018-Jun-22 14:59N 52°24' E 004°52'0 0.0
2018-Jun-22 14:26N 52°24' E 004°52'0 0.0
2018-Jun-22 13:59N 52°24' E 004°52'0 0.0
2018-Jun-22 13:29N 52°24' E 004°52'0 0.0
2018-Jun-22 12:59N 52°24' E 004°52'0 0.0
2018-Jun-22 12:29N 52°24' E 004°52'0 0.0
2018-Jun-22 11:59N 52°24' E 004°52'0 0.0
2018-Jun-22 11:29N 52°24' E 004°52'0 0.0
2018-Jun-22 10:56N 52°24' E 004°52'0 0.0
2018-Jun-22 10:29N 52°24' E 004°52'0 0.0
2018-Jun-22 09:59N 52°24' E 004°52'0 0.0
2018-Jun-22 09:23N 52°24' E 004°52'0 0.0
2018-Jun-22 08:59N 52°24' E 004°52'0 0.0
2018-Jun-22 08:29N 52°24' E 004°52'0 0.3
2018-Jun-22 08:01N 52°24' E 004°52'0 0.8
2018-Jun-22 07:28N 52°24' E 004°52'0 0.0
2018-Jun-22 06:58N 52°24' E 004°52'0 0.0
2018-Jun-22 06:28N 52°24' E 004°52'0 0.0
2018-Jun-22 05:58N 52°24' E 004°52'0 0.0
2018-Jun-22 05:28N 52°24' E 004°52'0 0.0
2018-Jun-22 04:55N 52°24' E 004°52'0 0.0
2018-Jun-22 04:28N 52°24' E 004°52'0 0.0
2018-Jun-22 03:58N 52°24' E 004°52'0 0.0
2018-Jun-22 03:28N 52°24' E 004°52'0 0.0
2018-Jun-22 02:58N 52°24' E 004°52'0 0.0
2018-Jun-22 02:28N 52°24' E 004°52'0 0.0
2018-Jun-22 01:58N 52°24' E 004°52'0 0.0
2018-Jun-22 01:28N 52°24' E 004°52'0 0.0
2018-Jun-22 00:58N 52°24' E 004°52'0 0.0
2018-Jun-22 00:28N 52°24' E 004°52'0 0.0
2018-Jun-21 23:58N 52°24' E 004°52'0 0.0
2018-Jun-21 23:28N 52°24' E 004°52'0 0.0
2018-Jun-21 22:58N 52°24' E 004°52'0 0.0
2018-Jun-21 22:28N 52°24' E 004°52'0 0.0
2018-Jun-21 21:58N 52°24' E 004°52'0 0.0
2018-Jun-21 21:28N 52°24' E 004°52'0 0.0
2018-Jun-21 20:58N 52°24' E 004°52'0 0.0
2018-Jun-21 20:28N 52°24' E 004°52'0 0.0
2018-Jun-21 19:49N 52°24' E 004°52'0 0.0
2018-Jun-21 19:28N 52°24' E 004°52'0 0.0
2018-Jun-21 18:58N 52°24' E 004°52'0 0.0
2018-Jun-21 18:28N 52°24' E 004°52'0 0.0
2018-Jun-21 17:58N 52°24' E 004°52'0 0.0
2018-Jun-21 17:28N 52°24' E 004°52'0 0.0
2018-Jun-21 16:58N 52°24' E 004°52'0 0.0
2018-Jun-21 16:28N 52°24' E 004°52'0 0.0
2018-Jun-21 15:58N 52°24' E 004°52'0 0.0
2018-Jun-21 15:28N 52°24' E 004°52'0 0.0
2018-Jun-21 14:55N 52°24' E 004°52'0 0.0
2018-Jun-21 14:28N 52°24' E 004°52'0 0.0
2018-Jun-21 13:55N 52°24' E 004°52'0 0.0
2018-Jun-21 13:28N 52°24' E 004°52'0 0.0
2018-Jun-21 12:55N 52°24' E 004°52'0 0.0
2018-Jun-21 12:28N 52°24' E 004°52'0 0.0
2018-Jun-21 11:58N 52°24' E 004°52'0 0.0
2018-Jun-21 11:28N 52°24' E 004°52'0 0.0
2018-Jun-21 10:58N 52°24' E 004°52'0 0.0
2018-Jun-21 10:25N 52°24' E 004°52'0 0.0
2018-Jun-21 09:58N 52°24' E 004°52'0 0.0
2018-Jun-21 09:28N 52°24' E 004°52'0 0.0
2018-Jun-21 08:58N 52°24' E 004°52'0 0.0
2018-Jun-21 08:28N 52°24' E 004°52'0 0.5
2018-Jun-21 08:01N 52°24' E 004°52'1 2.7
2018-Jun-21 07:31N 52°25' E 004°51'5 9.8
2018-Jun-21 07:01N 52°26' E 004°43'4 8.7
2018-Jun-21 06:30N 52°28' E 004°36'0 0.6
2018-Jun-21 06:00N 52°28' E 004°36'4 8.2
2018-Jun-21 05:30N 52°28' E 004°29'510.8
2018-Jun-21 05:00N 52°28' E 004°21'510.1
2018-Jun-21 04:30N 52°29' E 004°12'510.2
2018-Jun-21 04:00N 52°28' E 004°04'5 9.9
2018-Jun-21 03:30N 52°27' E 003°56'5 9.7
2018-Jun-21 03:00N 52°26' E 003°48'510.5
2018-Jun-21 02:30N 52°26' E 003°40'610.6
2018-Jun-21 01:59N 52°27' E 003°31'511.0
2018-Jun-21 01:30N 52°29' E 003°23'611.2
2018-Jun-21 01:00N 52°30' E 003°14'611.4
2018-Jun-21 00:28N 52°32' E 003°04'  
2018-Jun-15 17:46N 53°05' E 001°03'3 9.8
2018-Jun-15 17:30N 53°05' E 001°07'510.2
2018-Jun-15 17:00N 53°03' E 001°15'510.8
2018-Jun-15 16:30N 52°60' E 001°22'611.9
2018-Jun-15 16:00N 52°56' E 001°30'612.7
2018-Jun-15 15:30N 52°53' E 001°38'713.0
2018-Jun-15 15:00N 52°49' E 001°47'612.6
2018-Jun-15 14:30N 52°45' E 001°55'713.1
2018-Jun-15 14:00N 52°39' E 001°57'2111.1
2018-Jun-15 12:07N 52°18' E 001°55'1 9.5
2018-Jun-15 12:00N 52°16' E 001°55'5 9.3
2018-Jun-15 11:30N 52°12' E 001°54'4 8.7
2018-Jun-15 11:00N 52°08' E 001°53'4 8.0
2018-Jun-15 10:30N 52°04' E 001°52'4 7.4
2018-Jun-15 10:00N 52°00' E 001°51'3 6.8
2018-Jun-15 09:30N 51°57' E 001°50'3 5.9
2018-Jun-15 09:00N 51°54' E 001°49'3 6.0
2018-Jun-15 08:30N 51°51' E 001°48'4 7.3
2018-Jun-15 08:00N 51°47' E 001°49'  
Track history (hours):
 
Tides and Currents Weather Stations Pressure Air Temp Water Temp Dewpoint Dewpoint Depression Visibility Wind Speed Wind Dir Waves Ship Positions

Beaumaiden

Last reported at 2018-Jun-25 08:00 UTC. Time now 2018-Jun-25 08:19 UTC.
Position N 54°34' E 010°53'.

Length 88 m; draft 5.3 m.

Type: Cargo ship. MMSI: 244366000.

Date/timePositionNaut miles runAvg speedWind from/ knotsBaromVisibWave heightAir tempDewpointWater temp
2018-Jun-25 08:00N 54°34' E 010°53'611.1
2018-Jun-25 07:31N 54°34' E 010°43'510.1
2018-Jun-25 07:00N 54°34' E 010°35'5 9.9
2018-Jun-25 06:31N 54°31' E 010°27'5 9.9
2018-Jun-25 05:59N 54°29' E 010°19'5 9.2
2018-Jun-25 05:30N 54°26' E 010°14'23 6.1
2018-Jun-25 01:47N 54°17' E 009°38'2 8.0
2018-Jun-25 01:30N 54°14' E 009°37'3 6.5
2018-Jun-25 01:01N 54°12' E 009°33'8 5.8
2018-Jun-24 23:33N 54°08' E 009°20'1 8.6
2018-Jun-24 23:27N 54°08' E 009°20'4 8.4
2018-Jun-24 23:00N 54°04' E 009°19'4 8.6
2018-Jun-24 22:30N 53°60' E 009°17'4 7.3
2018-Jun-24 22:00N 53°57' E 009°14'0 0.0
2018-Jun-24 21:30N 53°57' E 009°14'0 0.0
2018-Jun-24 21:00N 53°57' E 009°14'1 2.2
2018-Jun-24 20:30N 53°56' E 009°12'3 6.2
2018-Jun-24 20:00N 53°54' E 009°09'0 0.0
2018-Jun-24 19:30N 53°54' E 009°09'1 2.5
2018-Jun-24 19:00N 53°53' E 009°07'4 8.0
2018-Jun-24 18:30N 53°51' E 009°01'510.6
2018-Jun-24 18:00N 53°50' E 008°52'5 9.4
2018-Jun-24 17:30N 53°52' E 008°44'5 9.7
2018-Jun-24 17:00N 53°56' E 008°40'100 9.1
2018-Jun-24 05:58N 53°39' E 005°53'510.0
2018-Jun-24 05:30N 53°37' E 005°46'510.2
2018-Jun-24 05:00N 53°35' E 005°37'510.4
2018-Jun-24 04:29N 53°34' E 005°29'510.4
2018-Jun-24 04:00N 53°32' E 005°21'510.5
2018-Jun-24 03:30N 53°30' E 005°13'510.5
2018-Jun-24 03:00N 53°29' E 005°04'510.6
2018-Jun-24 02:31N 53°26' E 004°56'510.6
2018-Jun-24 02:01N 53°24' E 004°48'510.1
2018-Jun-24 01:28N 53°21' E 004°41'2610.7
2018-Jun-23 23:05N 52°58' E 004°21'110.2
2018-Jun-23 22:57N 52°57' E 004°20'410.0
2018-Jun-23 22:30N 52°53' E 004°18'5 9.9
2018-Jun-23 22:00N 52°49' E 004°13'10 7.6
2018-Jun-23 20:42N 52°39' E 004°15'2 9.4
2018-Jun-23 20:29N 52°37' E 004°18'4 9.2
2018-Jun-23 20:00N 52°34' E 004°22'5 9.1
2018-Jun-23 19:31N 52°30' E 004°27'4 8.1
2018-Jun-23 19:00N 52°28' E 004°32'2 4.6
2018-Jun-23 18:30N 52°28' E 004°36'2 3.4
2018-Jun-23 18:00N 52°28' E 004°39'4 8.9
2018-Jun-23 17:31N 52°26' E 004°45'4 8.5
2018-Jun-23 17:01N 52°25' E 004°52'0 0.8
2018-Jun-23 16:29N 52°24' E 004°52'0 0.0
2018-Jun-23 15:59N 52°24' E 004°52'0 0.0
2018-Jun-23 15:29N 52°24' E 004°52'0 0.0
2018-Jun-23 14:59N 52°24' E 004°52'0 0.0
2018-Jun-23 14:29N 52°24' E 004°52'0 0.0
2018-Jun-23 13:59N 52°24' E 004°52'0 0.0
2018-Jun-23 13:26N 52°24' E 004°52'0 0.0
2018-Jun-23 12:56N 52°24' E 004°52'0 0.0
2018-Jun-23 12:26N 52°24' E 004°52'0 0.0
2018-Jun-23 11:59N 52°24' E 004°52'0 0.0
2018-Jun-23 11:29N 52°24' E 004°52'0 0.0
2018-Jun-23 10:56N 52°24' E 004°52'0 0.0
2018-Jun-23 10:29N 52°24' E 004°52'0 0.0
2018-Jun-23 09:59N 52°24' E 004°52'0 0.0
2018-Jun-23 09:29N 52°24' E 004°52'0 0.0
2018-Jun-23 08:59N 52°24' E 004°52'0 0.0
2018-Jun-23 08:29N 52°24' E 004°52'0 0.0
2018-Jun-23 07:59N 52°24' E 004°52'0 0.0
2018-Jun-23 07:29N 52°24' E 004°52'0 0.0
2018-Jun-23 06:56N 52°24' E 004°52'0 0.0
2018-Jun-23 06:29N 52°24' E 004°52'0 0.0
2018-Jun-23 05:59N 52°24' E 004°52'0 0.0
2018-Jun-23 05:29N 52°24' E 004°52'0 0.0
2018-Jun-23 04:59N 52°24' E 004°52'0 0.0
2018-Jun-23 04:29N 52°24' E 004°52'0 0.0
2018-Jun-23 03:59N 52°24' E 004°52'0 0.0
2018-Jun-23 03:29N 52°24' E 004°52'0 0.0
2018-Jun-23 02:59N 52°24' E 004°52'0 0.0
2018-Jun-23 02:29N 52°24' E 004°52'0 0.0
2018-Jun-23 01:59N 52°24' E 004°52'0 0.0
2018-Jun-23 01:29N 52°24' E 004°52'0 0.0
2018-Jun-23 00:59N 52°24' E 004°52'0 0.0
2018-Jun-23 00:29N 52°24' E 004°52'0 0.0
2018-Jun-22 23:59N 52°24' E 004°52'0 0.0
2018-Jun-22 23:29N 52°24' E 004°52'0 0.0
2018-Jun-22 22:59N 52°24' E 004°52'0 0.0
2018-Jun-22 22:29N 52°24' E 004°52'0 0.0
2018-Jun-22 21:59N 52°24' E 004°52'0 0.0
2018-Jun-22 21:29N 52°24' E 004°52'0 0.0
2018-Jun-22 20:59N 52°24' E 004°52'0 0.0
2018-Jun-22 20:29N 52°24' E 004°52'0 0.0
2018-Jun-22 19:59N 52°24' E 004°52'0 0.0
2018-Jun-22 19:29N 52°24' E 004°52'0 0.0
2018-Jun-22 18:59N 52°24' E 004°52'0 0.0
2018-Jun-22 18:29N 52°24' E 004°52'0 0.0
2018-Jun-22 17:59N 52°24' E 004°52'0 0.0
2018-Jun-22 17:29N 52°24' E 004°52'0 0.0
2018-Jun-22 16:56N 52°24' E 004°52'0 0.0
2018-Jun-22 16:29N 52°24' E 004°52'0 0.0
2018-Jun-22 15:59N 52°24' E 004°52'0 0.0
2018-Jun-22 15:26N 52°24' E 004°52'0 0.0
2018-Jun-22 14:59N 52°24' E 004°52'0 0.0
2018-Jun-22 14:26N 52°24' E 004°52'0 0.0
2018-Jun-22 13:59N 52°24' E 004°52'0 0.0
2018-Jun-22 13:29N 52°24' E 004°52'0 0.0
2018-Jun-22 12:59N 52°24' E 004°52'0 0.0
2018-Jun-22 12:29N 52°24' E 004°52'0 0.0
2018-Jun-22 11:59N 52°24' E 004°52'0 0.0
2018-Jun-22 11:29N 52°24' E 004°52'0 0.0
2018-Jun-22 10:56N 52°24' E 004°52'0 0.0
2018-Jun-22 10:29N 52°24' E 004°52'0 0.0
2018-Jun-22 09:59N 52°24' E 004°52'0 0.0
2018-Jun-22 09:23N 52°24' E 004°52'0 0.0
2018-Jun-22 08:59N 52°24' E 004°52'0 0.0
2018-Jun-22 08:29N 52°24' E 004°52'0 0.3
2018-Jun-22 08:01N 52°24' E 004°52'0 0.8
2018-Jun-22 07:28N 52°24' E 004°52'0 0.0
2018-Jun-22 06:58N 52°24' E 004°52'0 0.0
2018-Jun-22 06:28N 52°24' E 004°52'0 0.0
2018-Jun-22 05:58N 52°24' E 004°52'0 0.0
2018-Jun-22 05:28N 52°24' E 004°52'0 0.0
2018-Jun-22 04:55N 52°24' E 004°52'0 0.0
2018-Jun-22 04:28N 52°24' E 004°52'0 0.0
2018-Jun-22 03:58N 52°24' E 004°52'0 0.0
2018-Jun-22 03:28N 52°24' E 004°52'0 0.0
2018-Jun-22 02:58N 52°24' E 004°52'0 0.0
2018-Jun-22 02:28N 52°24' E 004°52'0 0.0
2018-Jun-22 01:58N 52°24' E 004°52'0 0.0
2018-Jun-22 01:28N 52°24' E 004°52'0 0.0
2018-Jun-22 00:58N 52°24' E 004°52'0 0.0
2018-Jun-22 00:28N 52°24' E 004°52'0 0.0
2018-Jun-21 23:58N 52°24' E 004°52'0 0.0
2018-Jun-21 23:28N 52°24' E 004°52'0 0.0
2018-Jun-21 22:58N 52°24' E 004°52'0 0.0
2018-Jun-21 22:28N 52°24' E 004°52'0 0.0
2018-Jun-21 21:58N 52°24' E 004°52'0 0.0
2018-Jun-21 21:28N 52°24' E 004°52'0 0.0
2018-Jun-21 20:58N 52°24' E 004°52'0 0.0
2018-Jun-21 20:28N 52°24' E 004°52'0 0.0
2018-Jun-21 19:49N 52°24' E 004°52'0 0.0
2018-Jun-21 19:28N 52°24' E 004°52'0 0.0
2018-Jun-21 18:58N 52°24' E 004°52'0 0.0
2018-Jun-21 18:28N 52°24' E 004°52'0 0.0
2018-Jun-21 17:58N 52°24' E 004°52'0 0.0
2018-Jun-21 17:28N 52°24' E 004°52'0 0.0
2018-Jun-21 16:58N 52°24' E 004°52'0 0.0
2018-Jun-21 16:28N 52°24' E 004°52'0 0.0
2018-Jun-21 15:58N 52°24' E 004°52'0 0.0
2018-Jun-21 15:28N 52°24' E 004°52'0 0.0
2018-Jun-21 14:55N 52°24' E 004°52'0 0.0
2018-Jun-21 14:28N 52°24' E 004°52'0 0.0
2018-Jun-21 13:55N 52°24' E 004°52'0 0.0
2018-Jun-21 13:28N 52°24' E 004°52'0 0.0
2018-Jun-21 12:55N 52°24' E 004°52'0 0.0
2018-Jun-21 12:28N 52°24' E 004°52'0 0.0
2018-Jun-21 11:58N 52°24' E 004°52'0 0.0
2018-Jun-21 11:28N 52°24' E 004°52'0 0.0
2018-Jun-21 10:58N 52°24' E 004°52'0 0.0
2018-Jun-21 10:25N 52°24' E 004°52'0 0.0
2018-Jun-21 09:58N 52°24' E 004°52'0 0.0
2018-Jun-21 09:28N 52°24' E 004°52'0 0.0
2018-Jun-21 08:58N 52°24' E 004°52'0 0.0
2018-Jun-21 08:28N 52°24' E 004°52'0 0.5
2018-Jun-21 08:01N 52°24' E 004°52'1 2.7
2018-Jun-21 07:31N 52°25' E 004°51'5 9.8
2018-Jun-21 07:01N 52°26' E 004°43'4 8.7
2018-Jun-21 06:30N 52°28' E 004°36'0 0.6
2018-Jun-21 06:00N 52°28' E 004°36'4 8.2
2018-Jun-21 05:30N 52°28' E 004°29'510.8
2018-Jun-21 05:00N 52°28' E 004°21'510.1
2018-Jun-21 04:30N 52°29' E 004°12'510.2
2018-Jun-21 04:00N 52°28' E 004°04'5 9.9
2018-Jun-21 03:30N 52°27' E 003°56'5 9.7
2018-Jun-21 03:00N 52°26' E 003°48'510.5
2018-Jun-21 02:30N 52°26' E 003°40'610.6
2018-Jun-21 01:59N 52°27' E 003°31'511.0
2018-Jun-21 01:30N 52°29' E 003°23'611.2
2018-Jun-21 01:00N 52°30' E 003°14'611.4
2018-Jun-21 00:28N 52°32' E 003°04'  
2018-Jun-15 17:46N 53°05' E 001°03'3 9.8
2018-Jun-15 17:30N 53°05' E 001°07'510.2
2018-Jun-15 17:00N 53°03' E 001°15'510.8
2018-Jun-15 16:30N 52°60' E 001°22'611.9
2018-Jun-15 16:00N 52°56' E 001°30'612.7
2018-Jun-15 15:30N 52°53' E 001°38'713.0
2018-Jun-15 15:00N 52°49' E 001°47'612.6
2018-Jun-15 14:30N 52°45' E 001°55'713.1
2018-Jun-15 14:00N 52°39' E 001°57'2111.1
2018-Jun-15 12:07N 52°18' E 001°55'1 9.5
2018-Jun-15 12:00N 52°16' E 001°55'5 9.3
2018-Jun-15 11:30N 52°12' E 001°54'4 8.7
2018-Jun-15 11:00N 52°08' E 001°53'4 8.0
2018-Jun-15 10:30N 52°04' E 001°52'4 7.4
2018-Jun-15 10:00N 52°00' E 001°51'3 6.8
2018-Jun-15 09:30N 51°57' E 001°50'3 5.9
2018-Jun-15 09:00N 51°54' E 001°49'3 6.0
2018-Jun-15 08:30N 51°51' E 001°48'4 7.3
2018-Jun-15 08:00N 51°47' E 001°49'  

Dump ship's entire track history